JOHN F KENNEDY INTL

KJFK (JFK)
New York, New York
Towered

Vatsim Metar:
KJFK 291351Z 17013KT 10SM FEW010 SCT038 BKN046 OVC130 22/20 A2991 RMK AO2 SLP128 T02170200 $

No ATC Online

Traffic

Inbound:
Ident
Type
Name
ETA
Phase
KQA002
H/B788/L
Roderick LSZN
14:32 Z
Descent
PSV200
B748/L
Kenneth Rondino KDAB
Boarding
ARG1300
H/B744/L
Dinis de Moura KIAH
16:32 Z
Descent
NRS17F
H/B789/L
Lewis Mcgown EGPF
17:41 Z
Cruse
BAW173A
H/B744/L
Goncalo Goncalves LPPT
18:47 Z
Cruse
JBU416
A321/L
K Howell KJFK
Boarding
KLM641
H/B77W/X
Sam Sharp EGNT
19:03 Z
Cruse
KLM645
H/B744
Joel Genao Amador MDSD
19:21 Z
Cruse
BAW15K
B772/H-SDE1E3FGHIJ3J5J6M1M2P2RWXYZ/LB1D1
Aulia Harun KGFK
20:11 Z
Cruse
KLM642
B737/L
Vlad Maci
20:45 Z
Descent

Outbound:
Ident
Type
Name
Destination
Phase
JBU1242
A320/L
Joe Vieira KBOS
KBOS
Taxiing Out
BAW2
H/CONC
Anders Stemland ENAL
EGKK
Taxiing Out